sensor_id;sensor_type;location;lat;lon;timestamp;temperature;humidity
8408;DHT22;4241;48.452;9.216;2023-04-03T00:00:51;4.20;99.90
8408;DHT22;4241;48.452;9.216;2023-04-03T00:03:20;4.30;99.90
8408;DHT22;4241;48.452;9.216;2023-04-03T00:05:47;4.40;99.90
8408;DHT22;4241;48.452;9.216;2023-04-03T00:08:14;4.40;99.90
8408;DHT22;4241;48.452;9.216;2023-04-03T00:10:41;4.30;99.90
8408;DHT22;4241;48.452;9.216;2023-04-03T00:13:08;4.30;99.90
8408;DHT22;4241;48.452;9.216;2023-04-03T00:15:36;4.30;99.90
8408;DHT22;4241;48.452;9.216;2023-04-03T00:18:03;4.30;99.90
8408;DHT22;4241;48.452;9.216;2023-04-03T00:20:32;4.40;99.90
8408;DHT22;4241;48.452;9.216;2023-04-03T00:22:59;4.40;99.90
8408;DHT22;4241;48.452;9.216;2023-04-03T00:25:26;4.40;99.90
8408;DHT22;4241;48.452;9.216;2023-04-03T00:27:53;4.20;99.90
8408;DHT22;4241;48.452;9.216;2023-04-03T00:30:21;4.30;99.90
8408;DHT22;4241;48.452;9.216;2023-04-03T00:32:49;4.10;99.90
8408;DHT22;4241;48.452;9.216;2023-04-03T00:35:16;4.20;99.90
8408;DHT22;4241;48.452;9.216;2023-04-03T00:37:45;4.10;99.90
8408;DHT22;4241;48.452;9.216;2023-04-03T00:40:13;4.20;99.90
8408;DHT22;4241;48.452;9.216;2023-04-03T00:42:41;3.90;99.90
8408;DHT22;4241;48.452;9.216;2023-04-03T00:45:32;4.20;99.90
8408;DHT22;4241;48.452;9.216;2023-04-03T00:48:01;4.00;99.90
8408;DHT22;4241;48.452;9.216;2023-04-03T00:50:33;4.10;99.90
8408;DHT22;4241;48.452;9.216;2023-04-03T00:53:03;4.00;99.90
8408;DHT22;4241;48.452;9.216;2023-04-03T00:55:31;3.90;99.90
8408;DHT22;4241;48.452;9.216;2023-04-03T00:57:59;4.00;99.90
8408;DHT22;4241;48.452;9.216;2023-04-03T01:00:27;4.30;99.90
8408;DHT22;4241;48.452;9.216;2023-04-03T01:02:54;4.20;99.90
8408;DHT22;4241;48.452;9.216;2023-04-03T01:05:21;4.20;99.90
8408;DHT22;4241;48.452;9.216;2023-04-03T01:07:49;4.10;99.90
8408;DHT22;4241;48.452;9.216;2023-04-03T01:10:20;4.40;99.90
8408;DHT22;4241;48.452;9.216;2023-04-03T01:12:48;4.20;99.90
8408;DHT22;4241;48.452;9.216;2023-04-03T01:15:18;4.30;99.90
8408;DHT22;4241;48.452;9.216;2023-04-03T01:17:48;4.30;99.90
8408;DHT22;4241;48.452;9.216;2023-04-03T01:23:28;4.10;99.90
8408;DHT22;4241;48.452;9.216;2023-04-03T01:25:59;4.20;99.90
8408;DHT22;4241;48.452;9.216;2023-04-03T01:28:28;4.30;99.90
8408;DHT22;4241;48.452;9.216;2023-04-03T01:31:00;4.20;99.90
8408;DHT22;4241;48.452;9.216;2023-04-03T01:33:31;4.20;99.90
8408;DHT22;4241;48.452;9.216;2023-04-03T01:35:58;4.10;99.90
8408;DHT22;4241;48.452;9.216;2023-04-03T01:38:25;4.00;99.90
8408;DHT22;4241;48.452;9.216;2023-04-03T01:40:52;3.90;99.90
8408;DHT22;4241;48.452;9.216;2023-04-03T01:43:19;4.00;99.90
8408;DHT22;4241;48.452;9.216;2023-04-03T01:45:46;4.10;99.90
8408;DHT22;4241;48.452;9.216;2023-04-03T01:48:14;4.10;99.90
8408;DHT22;4241;48.452;9.216;2023-04-03T01:50:43;4.00;99.90
8408;DHT22;4241;48.452;9.216;2023-04-03T01:53:10;4.20;99.90
8408;DHT22;4241;48.452;9.216;2023-04-03T01:55:37;4.10;99.90
8408;DHT22;4241;48.452;9.216;2023-04-03T01:58:03;4.10;99.90
8408;DHT22;4241;48.452;9.216;2023-04-03T02:00:30;4.10;99.90
8408;DHT22;4241;48.452;9.216;2023-04-03T02:02:57;4.10;99.90
8408;DHT22;4241;48.452;9.216;2023-04-03T02:05:24;4.30;99.90
8408;DHT22;4241;48.452;9.216;2023-04-03T02:07:52;4.50;99.90
8408;DHT22;4241;48.452;9.216;2023-04-03T02:10:19;4.00;99.90
8408;DHT22;4241;48.452;9.216;2023-04-03T02:12:46;4.00;99.90
8408;DHT22;4241;48.452;9.216;2023-04-03T02:15:12;3.90;99.90
8408;DHT22;4241;48.452;9.216;2023-04-03T02:17:39;4.10;99.90
8408;DHT22;4241;48.452;9.216;2023-04-03T02:20:07;4.10;99.90
8408;DHT22;4241;48.452;9.216;2023-04-03T02:22:34;3.90;99.90
8408;DHT22;4241;48.452;9.216;2023-04-03T02:25:02;4.00;99.90
8408;DHT22;4241;48.452;9.216;2023-04-03T02:27:29;4.10;99.90
8408;DHT22;4241;48.452;9.216;2023-04-03T02:29:57;4.00;99.90
8408;DHT22;4241;48.452;9.216;2023-04-03T02:32:24;3.90;99.90
8408;DHT22;4241;48.452;9.216;2023-04-03T02:34:50;4.00;99.90
8408;DHT22;4241;48.452;9.216;2023-04-03T02:37:17;4.10;99.90
8408;DHT22;4241;48.452;9.216;2023-04-03T02:39:44;4.10;99.90
8408;DHT22;4241;48.452;9.216;2023-04-03T02:42:12;4.10;99.90
8408;DHT22;4241;48.452;9.216;2023-04-03T02:44:39;4.20;99.90
8408;DHT22;4241;48.452;9.216;2023-04-03T02:47:05;4.10;99.90
8408;DHT22;4241;48.452;9.216;2023-04-03T02:49:32;4.20;99.90
8408;DHT22;4241;48.452;9.216;2023-04-03T02:51:59;4.10;99.90
8408;DHT22;4241;48.452;9.216;2023-04-03T02:54:26;4.20;99.90
8408;DHT22;4241;48.452;9.216;2023-04-03T02:56:56;4.00;99.90
8408;DHT22;4241;48.452;9.216;2023-04-03T02:59:24;4.10;99.90
8408;DHT22;4241;48.452;9.216;2023-04-03T03:01:51;4.20;99.90
8408;DHT22;4241;48.452;9.216;2023-04-03T03:04:18;4.20;99.90
8408;DHT22;4241;48.452;9.216;2023-04-03T03:06:45;4.00;99.90
8408;DHT22;4241;48.452;9.216;2023-04-03T03:09:12;4.20;99.90
8408;DHT22;4241;48.452;9.216;2023-04-03T03:11:39;4.20;99.90
8408;DHT22;4241;48.452;9.216;2023-04-03T03:14:06;4.20;99.90
8408;DHT22;4241;48.452;9.216;2023-04-03T03:16:34;4.20;99.90
8408;DHT22;4241;48.452;9.216;2023-04-03T03:19:01;4.20;99.90
8408;DHT22;4241;48.452;9.216;2023-04-03T03:21:28;4.20;99.90
8408;DHT22;4241;48.452;9.216;2023-04-03T03:23:54;4.20;99.90
8408;DHT22;4241;48.452;9.216;2023-04-03T03:26:21;4.20;99.90
8408;DHT22;4241;48.452;9.216;2023-04-03T03:28:48;4.10;99.90
8408;DHT22;4241;48.452;9.216;2023-04-03T03:31:15;4.20;99.90
8408;DHT22;4241;48.452;9.216;2023-04-03T03:33:43;3.90;99.90
8408;DHT22;4241;48.452;9.216;2023-04-03T03:36:10;4.10;99.90
8408;DHT22;4241;48.452;9.216;2023-04-03T03:38:37;4.00;99.90
8408;DHT22;4241;48.452;9.216;2023-04-03T03:41:04;4.10;99.90
8408;DHT22;4241;48.452;9.216;2023-04-03T03:43:31;3.90;99.90
8408;DHT22;4241;48.452;9.216;2023-04-03T03:45:57;3.90;99.90
8408;DHT22;4241;48.452;9.216;2023-04-03T03:48:24;3.90;99.90
8408;DHT22;4241;48.452;9.216;2023-04-03T03:50:52;3.90;99.90
8408;DHT22;4241;48.452;9.216;2023-04-03T03:53:19;4.30;99.90
8408;DHT22;4241;48.452;9.216;2023-04-03T03:55:46;4.00;99.90
8408;DHT22;4241;48.452;9.216;2023-04-03T03:58:13;4.00;99.90
8408;DHT22;4241;48.452;9.216;2023-04-03T04:00:40;4.00;99.90
8408;DHT22;4241;48.452;9.216;2023-04-03T04:03:06;4.10;99.90
8408;DHT22;4241;48.452;9.216;2023-04-03T04:05:33;4.20;99.90
8408;DHT22;4241;48.452;9.216;2023-04-03T04:08:01;4.10;99.90
8408;DHT22;4241;48.452;9.216;2023-04-03T04:10:28;4.10;99.90
8408;DHT22;4241;48.452;9.216;2023-04-03T04:12:55;4.20;99.90
8408;DHT22;4241;48.452;9.216;2023-04-03T04:15:22;4.10;99.90
8408;DHT22;4241;48.452;9.216;2023-04-03T04:17:50;4.00;99.90
8408;DHT22;4241;48.452;9.216;2023-04-03T04:20:17;3.90;99.90
8408;DHT22;4241;48.452;9.216;2023-04-03T04:22:44;3.70;99.90
8408;DHT22;4241;48.452;9.216;2023-04-03T04:25:12;3.80;99.90
8408;DHT22;4241;48.452;9.216;2023-04-03T04:27:39;3.90;99.90
8408;DHT22;4241;48.452;9.216;2023-04-03T04:30:07;3.60;99.90
8408;DHT22;4241;48.452;9.216;2023-04-03T04:32:33;3.40;99.90
8408;DHT22;4241;48.452;9.216;2023-04-03T04:35:01;3.60;99.90
8408;DHT22;4241;48.452;9.216;2023-04-03T04:37:27;3.60;99.90
8408;DHT22;4241;48.452;9.216;2023-04-03T04:39:54;3.50;99.90
8408;DHT22;4241;48.452;9.216;2023-04-03T04:42:22;3.60;99.90
8408;DHT22;4241;48.452;9.216;2023-04-03T04:44:49;3.70;99.90
8408;DHT22;4241;48.452;9.216;2023-04-03T04:47:16;3.80;99.90
8408;DHT22;4241;48.452;9.216;2023-04-03T04:49:46;3.70;99.90
8408;DHT22;4241;48.452;9.216;2023-04-03T04:52:14;3.60;99.90
8408;DHT22;4241;48.452;9.216;2023-04-03T04:54:40;3.80;99.90
8408;DHT22;4241;48.452;9.216;2023-04-03T04:57:07;3.70;99.90
8408;DHT22;4241;48.452;9.216;2023-04-03T04:59:35;3.80;99.90
8408;DHT22;4241;48.452;9.216;2023-04-03T05:02:02;3.60;99.90
8408;DHT22;4241;48.452;9.216;2023-04-03T05:04:29;3.60;99.90
8408;DHT22;4241;48.452;9.216;2023-04-03T05:06:56;3.70;99.90
8408;DHT22;4241;48.452;9.216;2023-04-03T05:09:23;3.70;99.90
8408;DHT22;4241;48.452;9.216;2023-04-03T05:11:49;3.70;99.90
8408;DHT22;4241;48.452;9.216;2023-04-03T05:14:17;3.60;99.90
8408;DHT22;4241;48.452;9.216;2023-04-03T05:16:45;3.70;99.90
8408;DHT22;4241;48.452;9.216;2023-04-03T05:19:13;3.60;99.90
8408;DHT22;4241;48.452;9.216;2023-04-03T05:21:39;3.50;99.90
8408;DHT22;4241;48.452;9.216;2023-04-03T05:24:07;3.70;99.90
8408;DHT22;4241;48.452;9.216;2023-04-03T05:26:35;3.60;99.90
8408;DHT22;4241;48.452;9.216;2023-04-03T05:29:02;3.70;99.90
8408;DHT22;4241;48.452;9.216;2023-04-03T05:31:28;3.80;99.90
8408;DHT22;4241;48.452;9.216;2023-04-03T05:33:57;3.70;99.90
8408;DHT22;4241;48.452;9.216;2023-04-03T05:36:24;3.80;99.90
8408;DHT22;4241;48.452;9.216;2023-04-03T05:38:52;4.10;99.90
8408;DHT22;4241;48.452;9.216;2023-04-03T05:41:19;3.80;99.90
8408;DHT22;4241;48.452;9.216;2023-04-03T05:43:46;3.80;99.90
8408;DHT22;4241;48.452;9.216;2023-04-03T05:46:14;3.80;99.90
8408;DHT22;4241;48.452;9.216;2023-04-03T05:48:41;3.80;99.90
8408;DHT22;4241;48.452;9.216;2023-04-03T05:51:15;3.80;99.90
8408;DHT22;4241;48.452;9.216;2023-04-03T05:53:43;3.70;99.90
8408;DHT22;4241;48.452;9.216;2023-04-03T05:56:11;3.60;99.90
8408;DHT22;4241;48.452;9.216;2023-04-03T05:58:38;3.80;99.90
8408;DHT22;4241;48.452;9.216;2023-04-03T06:01:05;3.60;99.90
8408;DHT22;4241;48.452;9.216;2023-04-03T06:03:32;3.70;99.90
8408;DHT22;4241;48.452;9.216;2023-04-03T06:05:58;3.90;99.90
8408;DHT22;4241;48.452;9.216;2023-04-03T06:08:26;3.80;99.90
8408;DHT22;4241;48.452;9.216;2023-04-03T06:10:53;3.70;99.90
8408;DHT22;4241;48.452;9.216;2023-04-03T06:13:20;3.90;99.90
8408;DHT22;4241;48.452;9.216;2023-04-03T06:15:47;3.80;99.90
8408;DHT22;4241;48.452;9.216;2023-04-03T06:18:14;4.00;99.90
8408;DHT22;4241;48.452;9.216;2023-04-03T06:20:41;4.00;99.90
8408;DHT22;4241;48.452;9.216;2023-04-03T06:23:07;4.00;99.90
8408;DHT22;4241;48.452;9.216;2023-04-03T06:25:37;4.00;99.90
8408;DHT22;4241;48.452;9.216;2023-04-03T06:28:04;4.00;99.90
8408;DHT22;4241;48.452;9.216;2023-04-03T06:30:31;3.90;99.90
8408;DHT22;4241;48.452;9.216;2023-04-03T06:32:58;3.90;99.90
8408;DHT22;4241;48.452;9.216;2023-04-03T06:35:24;3.90;99.90
8408;DHT22;4241;48.452;9.216;2023-04-03T06:37:52;4.10;99.90
8408;DHT22;4241;48.452;9.216;2023-04-03T06:40:22;4.20;99.90
8408;DHT22;4241;48.452;9.216;2023-04-03T06:42:50;4.30;99.90
8408;DHT22;4241;48.452;9.216;2023-04-03T06:45:17;4.20;99.90
8408;DHT22;4241;48.452;9.216;2023-04-03T06:47:44;4.00;99.90
8408;DHT22;4241;48.452;9.216;2023-04-03T06:50:12;4.40;99.90
8408;DHT22;4241;48.452;9.216;2023-04-03T06:52:40;4.10;99.90
8408;DHT22;4241;48.452;9.216;2023-04-03T06:55:08;4.10;99.90
8408;DHT22;4241;48.452;9.216;2023-04-03T06:57:35;4.10;99.90
8408;DHT22;4241;48.452;9.216;2023-04-03T07:00:05;4.20;99.90
8408;DHT22;4241;48.452;9.216;2023-04-03T07:02:32;4.00;99.90
8408;DHT22;4241;48.452;9.216;2023-04-03T07:04:59;4.10;99.90
8408;DHT22;4241;48.452;9.216;2023-04-03T07:07:26;4.20;99.90
8408;DHT22;4241;48.452;9.216;2023-04-03T07:09:52;4.20;99.90
8408;DHT22;4241;48.452;9.216;2023-04-03T07:12:19;4.80;99.90
8408;DHT22;4241;48.452;9.216;2023-04-03T07:14:46;4.30;99.90
8408;DHT22;4241;48.452;9.216;2023-04-03T07:17:14;4.50;99.90
8408;DHT22;4241;48.452;9.216;2023-04-03T07:19:41;4.90;99.90
8408;DHT22;4241;48.452;9.216;2023-04-03T07:22:08;4.40;99.90
8408;DHT22;4241;48.452;9.216;2023-04-03T07:24:36;4.50;99.90
8408;DHT22;4241;48.452;9.216;2023-04-03T07:27:03;4.30;99.90
8408;DHT22;4241;48.452;9.216;2023-04-03T07:29:31;4.80;99.90
8408;DHT22;4241;48.452;9.216;2023-04-03T07:32:04;4.60;99.90
8408;DHT22;4241;48.452;9.216;2023-04-03T07:34:32;4.40;99.90
8408;DHT22;4241;48.452;9.216;2023-04-03T07:36:59;6.20;99.90
8408;DHT22;4241;48.452;9.216;2023-04-03T07:39:26;4.40;99.90
8408;DHT22;4241;48.452;9.216;2023-04-03T07:41:53;4.30;99.90
8408;DHT22;4241;48.452;9.216;2023-04-03T07:44:20;4.50;99.90
8408;DHT22;4241;48.452;9.216;2023-04-03T07:46:47;4.40;99.90
8408;DHT22;4241;48.452;9.216;2023-04-03T07:49:16;4.50;99.90
8408;DHT22;4241;48.452;9.216;2023-04-03T07:51:45;4.50;99.90
8408;DHT22;4241;48.452;9.216;2023-04-03T07:54:12;4.40;99.90
8408;DHT22;4241;48.452;9.216;2023-04-03T07:56:39;4.50;99.90
8408;DHT22;4241;48.452;9.216;2023-04-03T07:59:05;4.50;99.90
8408;DHT22;4241;48.452;9.216;2023-04-03T08:01:33;4.50;99.90
8408;DHT22;4241;48.452;9.216;2023-04-03T08:04:00;4.50;99.90
8408;DHT22;4241;48.452;9.216;2023-04-03T08:06:27;4.30;99.90
8408;DHT22;4241;48.452;9.216;2023-04-03T08:08:56;4.40;99.90
8408;DHT22;4241;48.452;9.216;2023-04-03T08:11:22;4.50;99.90
8408;DHT22;4241;48.452;9.216;2023-04-03T08:13:51;4.40;99.90
8408;DHT22;4241;48.452;9.216;2023-04-03T08:16:20;4.50;99.90
8408;DHT22;4241;48.452;9.216;2023-04-03T08:18:48;4.60;99.90
8408;DHT22;4241;48.452;9.216;2023-04-03T08:21:15;4.70;99.90
8408;DHT22;4241;48.452;9.216;2023-04-03T08:23:42;4.70;99.90
8408;DHT22;4241;48.452;9.216;2023-04-03T08:26:13;4.70;99.90
8408;DHT22;4241;48.452;9.216;2023-04-03T08:28:41;4.60;99.90
8408;DHT22;4241;48.452;9.216;2023-04-03T08:31:11;4.60;99.90
8408;DHT22;4241;48.452;9.216;2023-04-03T08:33:39;4.60;99.90
8408;DHT22;4241;48.452;9.216;2023-04-03T08:36:15;4.50;99.90
8408;DHT22;4241;48.452;9.216;2023-04-03T08:38:42;4.60;99.90
8408;DHT22;4241;48.452;9.216;2023-04-03T08:41:15;4.70;99.90
8408;DHT22;4241;48.452;9.216;2023-04-03T08:43:53;4.80;99.90
8408;DHT22;4241;48.452;9.216;2023-04-03T08:46:25;4.80;99.90
8408;DHT22;4241;48.452;9.216;2023-04-03T08:48:58;4.90;99.90
8408;DHT22;4241;48.452;9.216;2023-04-03T08:51:26;4.90;99.90
8408;DHT22;4241;48.452;9.216;2023-04-03T08:54:05;4.80;99.90
8408;DHT22;4241;48.452;9.216;2023-04-03T08:56:33;4.60;99.90
8408;DHT22;4241;48.452;9.216;2023-04-03T08:59:05;4.60;99.90
8408;DHT22;4241;48.452;9.216;2023-04-03T09:01:35;4.60;99.90
8408;DHT22;4241;48.452;9.216;2023-04-03T09:04:08;4.50;99.90
8408;DHT22;4241;48.452;9.216;2023-04-03T09:06:36;4.70;99.90
8408;DHT22;4241;48.452;9.216;2023-04-03T09:09:13;4.80;99.90
8408;DHT22;4241;48.452;9.216;2023-04-03T09:11:49;4.80;99.90
8408;DHT22;4241;48.452;9.216;2023-04-03T09:14:24;4.80;99.90
8408;DHT22;4241;48.452;9.216;2023-04-03T09:16:54;4.80;99.90
8408;DHT22;4241;48.452;9.216;2023-04-03T09:19:28;4.90;99.90
8408;DHT22;4241;48.452;9.216;2023-04-03T09:22:03;5.20;99.90
8408;DHT22;4241;48.452;9.216;2023-04-03T09:24:37;5.00;99.90
8408;DHT22;4241;48.452;9.216;2023-04-03T09:27:06;5.20;99.90
8408;DHT22;4241;48.452;9.216;2023-04-03T09:29:39;5.10;99.90
8408;DHT22;4241;48.452;9.216;2023-04-03T09:32:19;5.20;99.90
8408;DHT22;4241;48.452;9.216;2023-04-03T09:34:47;5.20;99.90
8408;DHT22;4241;48.452;9.216;2023-04-03T09:37:35;5.20;99.90
8408;DHT22;4241;48.452;9.216;2023-04-03T09:40:05;5.40;99.90
8408;DHT22;4241;48.452;9.216;2023-04-03T09:42:33;5.50;99.90
8408;DHT22;4241;48.452;9.216;2023-04-03T09:45:22;5.50;99.90
8408;DHT22;4241;48.452;9.216;2023-04-03T09:47:49;5.80;99.90
8408;DHT22;4241;48.452;9.216;2023-04-03T09:50:30;5.70;99.90
8408;DHT22;4241;48.452;9.216;2023-04-03T09:52:57;5.70;99.90
8408;DHT22;4241;48.452;9.216;2023-04-03T09:55:26;5.60;99.90
8408;DHT22;4241;48.452;9.216;2023-04-03T09:57:55;5.40;99.90
8408;DHT22;4241;48.452;9.216;2023-04-03T10:00:25;5.30;99.90
8408;DHT22;4241;48.452;9.216;2023-04-03T10:02:54;5.30;99.90
8408;DHT22;4241;48.452;9.216;2023-04-03T10:05:31;5.30;99.90
8408;DHT22;4241;48.452;9.216;2023-04-03T10:08:09;5.20;99.90
8408;DHT22;4241;48.452;9.216;2023-04-03T10:10:39;5.20;99.90
8408;DHT22;4241;48.452;9.216;2023-04-03T10:13:09;5.50;99.90
8408;DHT22;4241;48.452;9.216;2023-04-03T10:15:41;5.80;99.90
8408;DHT22;4241;48.452;9.216;2023-04-03T10:18:22;5.80;99.90
8408;DHT22;4241;48.452;9.216;2023-04-03T10:20:54;5.80;99.90
8408;DHT22;4241;48.452;9.216;2023-04-03T10:23:27;5.80;99.90
8408;DHT22;4241;48.452;9.216;2023-04-03T10:26:06;5.90;99.90
8408;DHT22;4241;48.452;9.216;2023-04-03T10:28:43;6.00;99.90
8408;DHT22;4241;48.452;9.216;2023-04-03T10:31:16;6.10;99.90
8408;DHT22;4241;48.452;9.216;2023-04-03T10:33:53;5.90;99.90
8408;DHT22;4241;48.452;9.216;2023-04-03T10:36:32;6.00;99.90
8408;DHT22;4241;48.452;9.216;2023-04-03T10:39:04;6.00;99.90
8408;DHT22;4241;48.452;9.216;2023-04-03T10:41:43;6.00;99.90
8408;DHT22;4241;48.452;9.216;2023-04-03T10:44:24;5.80;99.90
8408;DHT22;4241;48.452;9.216;2023-04-03T10:47:00;5.60;99.90
8408;DHT22;4241;48.452;9.216;2023-04-03T10:49:38;5.50;99.90
8408;DHT22;4241;48.452;9.216;2023-04-03T10:52:14;5.30;99.90
8408;DHT22;4241;48.452;9.216;2023-04-03T10:54:46;5.40;99.90
8408;DHT22;4241;48.452;9.216;2023-04-03T10:57:19;5.50;99.90
8408;DHT22;4241;48.452;9.216;2023-04-03T10:59:49;5.40;99.90
8408;DHT22;4241;48.452;9.216;2023-04-03T11:02:22;5.50;99.90
8408;DHT22;4241;48.452;9.216;2023-04-03T11:04:52;5.50;99.90
8408;DHT22;4241;48.452;9.216;2023-04-03T11:07:21;5.50;99.90
8408;DHT22;4241;48.452;9.216;2023-04-03T11:09:50;5.50;99.90
8408;DHT22;4241;48.452;9.216;2023-04-03T11:12:25;5.40;99.90
8408;DHT22;4241;48.452;9.216;2023-04-03T11:14:55;6.70;99.90
8408;DHT22;4241;48.452;9.216;2023-04-03T11:17:30;5.50;99.90
8408;DHT22;4241;48.452;9.216;2023-04-03T11:20:03;5.30;99.90
8408;DHT22;4241;48.452;9.216;2023-04-03T11:22:35;5.50;99.90
8408;DHT22;4241;48.452;9.216;2023-04-03T11:25:08;5.40;99.90
8408;DHT22;4241;48.452;9.216;2023-04-03T11:27:44;5.60;99.90
8408;DHT22;4241;48.452;9.216;2023-04-03T11:30:17;5.60;99.90
8408;DHT22;4241;48.452;9.216;2023-04-03T11:32:55;5.70;99.90
8408;DHT22;4241;48.452;9.216;2023-04-03T11:35:26;5.30;99.90
8408;DHT22;4241;48.452;9.216;2023-04-03T11:37:53;5.40;99.90
8408;DHT22;4241;48.452;9.216;2023-04-03T11:40:24;5.40;99.90
8408;DHT22;4241;48.452;9.216;2023-04-03T11:42:54;5.40;99.90
8408;DHT22;4241;48.452;9.216;2023-04-03T11:45:35;5.40;99.90
8408;DHT22;4241;48.452;9.216;2023-04-03T11:48:05;5.40;99.90
8408;DHT22;4241;48.452;9.216;2023-04-03T11:50:42;5.30;99.90
8408;DHT22;4241;48.452;9.216;2023-04-03T11:53:31;5.40;99.90
8408;DHT22;4241;48.452;9.216;2023-04-03T11:56:02;5.50;99.90
8408;DHT22;4241;48.452;9.216;2023-04-03T11:58:32;5.30;99.90
8408;DHT22;4241;48.452;9.216;2023-04-03T12:01:07;5.30;99.90
8408;DHT22;4241;48.452;9.216;2023-04-03T12:03:57;5.20;99.90
8408;DHT22;4241;48.452;9.216;2023-04-03T12:10:01;5.80;99.90
8408;DHT22;4241;48.452;9.216;2023-04-03T12:12:37;5.80;99.90
8408;DHT22;4241;48.452;9.216;2023-04-03T12:15:41;5.90;99.90
8408;DHT22;4241;48.452;9.216;2023-04-03T12:21:18;6.00;99.90
8408;DHT22;4241;48.452;9.216;2023-04-03T12:24:04;5.80;99.90
8408;DHT22;4241;48.452;9.216;2023-04-03T12:26:40;5.90;99.90
8408;DHT22;4241;48.452;9.216;2023-04-03T12:29:17;5.60;99.90
8408;DHT22;4241;48.452;9.216;2023-04-03T12:31:55;5.70;99.90
8408;DHT22;4241;48.452;9.216;2023-04-03T12:34:38;5.60;99.90
8408;DHT22;4241;48.452;9.216;2023-04-03T12:37:21;5.60;99.90
8408;DHT22;4241;48.452;9.216;2023-04-03T12:39:55;5.70;99.90
8408;DHT22;4241;48.452;9.216;2023-04-03T12:43:02;5.60;99.90
8408;DHT22;4241;48.452;9.216;2023-04-03T12:45:41;5.60;99.90
8408;DHT22;4241;48.452;9.216;2023-04-03T12:48:14;5.50;99.90
8408;DHT22;4241;48.452;9.216;2023-04-03T12:50:42;5.60;99.90
8408;DHT22;4241;48.452;9.216;2023-04-03T12:53:13;5.60;99.90
8408;DHT22;4241;48.452;9.216;2023-04-03T12:55:42;5.50;99.90
8408;DHT22;4241;48.452;9.216;2023-04-03T12:58:19;5.70;99.90
8408;DHT22;4241;48.452;9.216;2023-04-03T13:00:59;5.70;99.90
8408;DHT22;4241;48.452;9.216;2023-04-03T13:03:28;5.80;99.90
8408;DHT22;4241;48.452;9.216;2023-04-03T13:05:59;5.70;99.90
8408;DHT22;4241;48.452;9.216;2023-04-03T13:08:26;5.60;99.90
8408;DHT22;4241;48.452;9.216;2023-04-03T13:10:57;5.40;99.90
8408;DHT22;4241;48.452;9.216;2023-04-03T13:13:25;5.40;99.90
8408;DHT22;4241;48.452;9.216;2023-04-03T13:15:53;5.60;99.90
8408;DHT22;4241;48.452;9.216;2023-04-03T13:18:27;5.60;99.90
8408;DHT22;4241;48.452;9.216;2023-04-03T13:20:57;5.50;99.00
8408;DHT22;4241;48.452;9.216;2023-04-03T13:23:26;5.40;99.00
8408;DHT22;4241;48.452;9.216;2023-04-03T13:25:53;5.40;97.30
8408;DHT22;4241;48.452;9.216;2023-04-03T13:28:24;5.30;98.50
8408;DHT22;4241;48.452;9.216;2023-04-03T13:31:01;5.30;99.90
8408;DHT22;4241;48.452;9.216;2023-04-03T13:33:32;5.50;99.00
8408;DHT22;4241;48.452;9.216;2023-04-03T13:36:02;5.40;98.60
8408;DHT22;4241;48.452;9.216;2023-04-03T13:38:31;5.30;99.10
8408;DHT22;4241;48.452;9.216;2023-04-03T13:41:01;5.30;98.90
8408;DHT22;4241;48.452;9.216;2023-04-03T13:43:31;5.20;98.80
8408;DHT22;4241;48.452;9.216;2023-04-03T13:46:20;5.30;99.10
8408;DHT22;4241;48.452;9.216;2023-04-03T13:48:50;5.20;99.20
8408;DHT22;4241;48.452;9.216;2023-04-03T13:51:21;5.40;99.90
8408;DHT22;4241;48.452;9.216;2023-04-03T13:53:50;5.50;99.90
8408;DHT22;4241;48.452;9.216;2023-04-03T13:56:21;5.60;99.70
8408;DHT22;4241;48.452;9.216;2023-04-03T13:58:58;5.60;99.90
8408;DHT22;4241;48.452;9.216;2023-04-03T14:01:26;5.50;98.90
8408;DHT22;4241;48.452;9.216;2023-04-03T14:04:10;5.50;98.60
8408;DHT22;4241;48.452;9.216;2023-04-03T14:06:37;5.40;99.10
8408;DHT22;4241;48.452;9.216;2023-04-03T14:09:04;5.40;98.90
8408;DHT22;4241;48.452;9.216;2023-04-03T14:11:31;6.30;99.80
8408;DHT22;4241;48.452;9.216;2023-04-03T14:14:00;5.80;99.80
8408;DHT22;4241;48.452;9.216;2023-04-03T14:16:30;5.90;99.90
8408;DHT22;4241;48.452;9.216;2023-04-03T14:18:59;6.20;98.90
8408;DHT22;4241;48.452;9.216;2023-04-03T14:21:26;6.00;96.70
8408;DHT22;4241;48.452;9.216;2023-04-03T14:23:53;6.00;98.20
8408;DHT22;4241;48.452;9.216;2023-04-03T14:26:22;6.20;97.60
8408;DHT22;4241;48.452;9.216;2023-04-03T14:28:51;6.00;97.30
8408;DHT22;4241;48.452;9.216;2023-04-03T14:31:19;6.30;98.40
8408;DHT22;4241;48.452;9.216;2023-04-03T14:33:46;6.20;99.30
8408;DHT22;4241;48.452;9.216;2023-04-03T14:36:17;6.20;95.80
8408;DHT22;4241;48.452;9.216;2023-04-03T14:38:45;6.20;96.20
8408;DHT22;4241;48.452;9.216;2023-04-03T14:41:13;6.30;97.50
8408;DHT22;4241;48.452;9.216;2023-04-03T14:43:40;6.20;95.90
8408;DHT22;4241;48.452;9.216;2023-04-03T14:46:13;6.10;94.70
8408;DHT22;4241;48.452;9.216;2023-04-03T14:48:40;6.40;97.20
8408;DHT22;4241;48.452;9.216;2023-04-03T14:51:09;6.50;95.20
8408;DHT22;4241;48.452;9.216;2023-04-03T14:53:38;6.50;94.20
8408;DHT22;4241;48.452;9.216;2023-04-03T14:56:12;6.60;94.70
8408;DHT22;4241;48.452;9.216;2023-04-03T14:58:38;6.60;94.70
8408;DHT22;4241;48.452;9.216;2023-04-03T15:01:05;6.50;95.00
8408;DHT22;4241;48.452;9.216;2023-04-03T15:03:32;6.50;93.70
8408;DHT22;4241;48.452;9.216;2023-04-03T15:05:59;6.40;93.90
8408;DHT22;4241;48.452;9.216;2023-04-03T15:08:27;6.40;93.50
8408;DHT22;4241;48.452;9.216;2023-04-03T15:10:57;6.40;93.80
8408;DHT22;4241;48.452;9.216;2023-04-03T15:13:24;6.30;94.40
8408;DHT22;4241;48.452;9.216;2023-04-03T15:15:52;6.30;93.80
8408;DHT22;4241;48.452;9.216;2023-04-03T15:18:21;6.30;93.70
8408;DHT22;4241;48.452;9.216;2023-04-03T15:20:48;6.40;93.60
8408;DHT22;4241;48.452;9.216;2023-04-03T15:23:19;6.30;92.90
8408;DHT22;4241;48.452;9.216;2023-04-03T15:25:47;6.20;93.30
8408;DHT22;4241;48.452;9.216;2023-04-03T15:28:20;6.10;93.70
8408;DHT22;4241;48.452;9.216;2023-04-03T15:30:48;6.00;93.40
8408;DHT22;4241;48.452;9.216;2023-04-03T15:33:15;5.90;92.30
8408;DHT22;4241;48.452;9.216;2023-04-03T15:35:42;5.80;93.30
8408;DHT22;4241;48.452;9.216;2023-04-03T15:38:09;5.80;92.40
8408;DHT22;4241;48.452;9.216;2023-04-03T15:40:36;5.90;92.90
8408;DHT22;4241;48.452;9.216;2023-04-03T15:43:04;5.90;93.80
8408;DHT22;4241;48.452;9.216;2023-04-03T15:45:34;5.90;93.70
8408;DHT22;4241;48.452;9.216;2023-04-03T15:48:02;5.80;93.60
8408;DHT22;4241;48.452;9.216;2023-04-03T15:50:29;6.10;94.60
8408;DHT22;4241;48.452;9.216;2023-04-03T15:52:56;6.10;92.80
8408;DHT22;4241;48.452;9.216;2023-04-03T15:55:26;6.10;90.70
8408;DHT22;4241;48.452;9.216;2023-04-03T15:57:53;5.90;91.70
8408;DHT22;4241;48.452;9.216;2023-04-03T16:00:20;5.90;92.00
8408;DHT22;4241;48.452;9.216;2023-04-03T16:02:52;6.00;91.80
8408;DHT22;4241;48.452;9.216;2023-04-03T16:05:19;5.90;91.80
8408;DHT22;4241;48.452;9.216;2023-04-03T16:07:46;5.90;93.90
8408;DHT22;4241;48.452;9.216;2023-04-03T16:10:15;5.80;91.20
8408;DHT22;4241;48.452;9.216;2023-04-03T16:12:42;5.70;91.20
8408;DHT22;4241;48.452;9.216;2023-04-03T16:15:10;5.80;91.80
8408;DHT22;4241;48.452;9.216;2023-04-03T16:17:37;5.60;91.70
8408;DHT22;4241;48.452;9.216;2023-04-03T16:20:09;5.60;92.50
8408;DHT22;4241;48.452;9.216;2023-04-03T16:22:37;5.60;91.50
8408;DHT22;4241;48.452;9.216;2023-04-03T16:25:05;5.40;92.40
8408;DHT22;4241;48.452;9.216;2023-04-03T16:27:32;5.60;91.40
8408;DHT22;4241;48.452;9.216;2023-04-03T16:30:00;5.80;92.30
8408;DHT22;4241;48.452;9.216;2023-04-03T16:32:29;6.50;91.20
8408;DHT22;4241;48.452;9.216;2023-04-03T16:34:57;7.10;88.50
8408;DHT22;4241;48.452;9.216;2023-04-03T16:37:25;7.70;86.80
8408;DHT22;4241;48.452;9.216;2023-04-03T16:39:52;8.20;82.20
8408;DHT22;4241;48.452;9.216;2023-04-03T16:42:19;8.40;81.10